createdAt,value
2023-04-07T00:00:00.024Z,58734.78
2023-04-07T00:02:28.744Z,58734.78
2023-04-07T00:04:57.501Z,58734.78
2023-04-07T00:07:25.386Z,58734.78
2023-04-07T00:09:53.175Z,58734.78
2023-04-07T00:12:21.174Z,58734.78
2023-04-07T00:14:48.945Z,58734.78
2023-04-07T00:17:18.069Z,58734.78
2023-04-07T00:19:45.733Z,58734.78
2023-04-07T00:22:13.483Z,58734.78
2023-04-07T00:24:41.238Z,58734.78
2023-04-07T00:27:08.887Z,58734.78
2023-04-07T00:29:36.634Z,58734.78
2023-04-07T00:32:04.406Z,58734.78
2023-04-07T00:34:33.496Z,58734.78
2023-04-07T00:37:01.429Z,58734.78
2023-04-07T00:39:29.182Z,58734.78
2023-04-07T00:41:57.963Z,58734.78
2023-04-07T00:44:25.684Z,58734.78
2023-04-07T00:46:53.611Z,58734.78
2023-04-07T00:49:21.684Z,58734.78
2023-04-07T00:51:51.200Z,58734.78
2023-04-07T00:54:19.802Z,58734.78
2023-04-07T00:56:47.597Z,58734.78
2023-04-07T00:59:15.481Z,58734.78
2023-04-07T01:01:49.532Z,58734.78
2023-04-07T01:04:28.412Z,58734.78
2023-04-07T01:07:05.007Z,58734.78
2023-04-07T01:09:39.599Z,58734.78
2023-04-07T01:12:14.774Z,58734.78
2023-04-07T01:14:48.793Z,58734.78
2023-04-07T01:17:18.414Z,58734.78
2023-04-07T01:19:49.944Z,58734.78
2023-04-07T01:22:25.261Z,58734.78
2023-04-07T01:25:17.457Z,58734.78
2023-04-07T01:27:56.295Z,58734.78
2023-04-07T01:30:29.895Z,58734.78
2023-04-07T01:33:00.431Z,58734.78
2023-04-07T01:35:30.827Z,58734.78
2023-04-07T01:38:00.575Z,58734.78
2023-04-07T01:40:29.990Z,58734.78
2023-04-07T01:42:59.000Z,58734.78
2023-04-07T01:45:29.877Z,58734.78
2023-04-07T01:47:58.607Z,58734.78
2023-04-07T01:50:27.964Z,58734.78
2023-04-07T01:52:55.896Z,58734.78
2023-04-07T01:55:24.177Z,58734.78
2023-04-07T01:57:54.270Z,58734.78
2023-04-07T02:00:22.699Z,58734.78
2023-04-07T02:03:00.304Z,58734.78
2023-04-07T02:05:31.401Z,58734.78
2023-04-07T02:08:02.448Z,58734.78
2023-04-07T02:10:34.360Z,58734.78
2023-04-07T02:13:05.140Z,58734.78
2023-04-07T02:15:33.459Z,58734.78
2023-04-07T02:18:04.757Z,58734.78
2023-04-07T02:20:32.986Z,58734.78
2023-04-07T02:23:04.014Z,58734.78
2023-04-07T02:25:34.282Z,58734.78
2023-04-07T02:28:02.458Z,58734.78
2023-04-07T02:30:30.577Z,58734.78
2023-04-07T02:32:58.346Z,58734.78
2023-04-07T02:35:27.727Z,58734.78
2023-04-07T02:37:55.715Z,58734.78
2023-04-07T02:40:23.776Z,58734.78
2023-04-07T02:42:51.748Z,58734.78
2023-04-07T02:45:19.449Z,58734.78
2023-04-07T02:47:47.178Z,58734.78
2023-04-07T02:50:15.161Z,58734.78
2023-04-07T02:52:44.295Z,58734.78
2023-04-07T02:55:12.064Z,58734.78
2023-04-07T02:57:39.920Z,58734.78
2023-04-07T03:00:09.201Z,58734.78
2023-04-07T03:02:37.068Z,58734.78
2023-04-07T03:05:05.712Z,58734.78
2023-04-07T03:07:33.479Z,58734.78
2023-04-07T03:10:02.705Z,58734.78
2023-04-07T03:12:30.520Z,58734.78
2023-04-07T03:14:58.219Z,58734.78
2023-04-07T03:17:26.256Z,58734.78
2023-04-07T03:19:54.063Z,58734.78
2023-04-07T03:22:21.791Z,58734.78
2023-04-07T03:24:49.474Z,58734.78
2023-04-07T03:27:20.130Z,58734.78
2023-04-07T03:29:48.068Z,58734.78
2023-04-07T03:32:16.033Z,58734.78
2023-04-07T03:34:43.941Z,58734.78
2023-04-07T03:37:11.808Z,58734.78
2023-04-07T03:39:40.999Z,58734.78
2023-04-07T03:42:08.917Z,58734.78
2023-04-07T03:44:38.019Z,58734.78
2023-04-07T03:47:06.076Z,58734.78
2023-04-07T03:49:33.912Z,58734.78
2023-04-07T03:52:01.994Z,58734.78
2023-04-07T03:54:29.683Z,58734.78
2023-04-07T03:56:57.879Z,58734.78
2023-04-07T03:59:25.662Z,58734.78
2023-04-07T04:01:55.654Z,58734.78
2023-04-07T04:04:24.719Z,58734.78
2023-04-07T04:06:52.637Z,58734.78
2023-04-07T04:09:20.828Z,58734.78
2023-04-07T04:11:48.618Z,58734.78
2023-04-07T04:14:16.662Z,58734.78
2023-04-07T04:16:44.574Z,58734.78
2023-04-07T04:19:13.732Z,58734.78
2023-04-07T04:21:41.542Z,58734.78
2023-04-07T04:24:09.362Z,58734.78
2023-04-07T04:26:37.116Z,58734.78
2023-04-07T04:29:04.959Z,58734.78
2023-04-07T04:31:32.735Z,58734.78
2023-04-07T04:34:00.488Z,58734.78
2023-04-07T04:36:29.613Z,58734.78
2023-04-07T04:38:57.464Z,58734.78
2023-04-07T04:41:25.164Z,58734.78
2023-04-07T04:43:53.004Z,58734.78
2023-04-07T04:46:20.734Z,58734.78
2023-04-07T04:48:48.406Z,58734.78
2023-04-07T04:51:16.142Z,58734.78
2023-04-07T04:53:45.254Z,58734.78
2023-04-07T04:56:13.074Z,58734.78
2023-04-07T04:58:42.160Z,58734.78
2023-04-07T05:01:09.968Z,58734.78
2023-04-07T05:03:37.824Z,58734.78
2023-04-07T05:06:06.354Z,58734.78
2023-04-07T05:08:34.155Z,58734.78
2023-04-07T05:11:03.294Z,58734.78
2023-04-07T05:13:31.325Z,58734.78
2023-04-07T05:15:59.161Z,58734.78
2023-04-07T05:18:27.098Z,58734.78
2023-04-07T05:20:55.474Z,58734.78
2023-04-07T05:23:23.238Z,58734.78
2023-04-07T05:25:51.522Z,58734.78
2023-04-07T05:28:20.709Z,58734.78
2023-04-07T05:30:49.433Z,58734.78
2023-04-07T05:33:17.220Z,58734.78
2023-04-07T05:35:45.717Z,58734.78
2023-04-07T05:38:13.658Z,58734.78
2023-04-07T05:40:42.243Z,58734.78
2023-04-07T05:43:10.243Z,58734.78
2023-04-07T05:45:39.466Z,58734.78
2023-04-07T05:48:07.361Z,58734.78
2023-04-07T05:50:35.179Z,58734.78
2023-04-07T05:53:02.927Z,58734.78
2023-04-07T05:55:31.173Z,58734.78
2023-04-07T05:57:58.979Z,58734.78
2023-04-07T06:00:27.330Z,58734.78
2023-04-07T06:02:56.625Z,58734.78
2023-04-07T06:05:24.624Z,58734.78
2023-04-07T06:07:52.465Z,58734.78
2023-04-07T06:10:20.395Z,58734.78
2023-04-07T06:12:48.138Z,58734.78
2023-04-07T06:15:16.137Z,58734.78
2023-04-07T06:17:45.547Z,58734.78
2023-04-07T06:20:14.873Z,58734.78
2023-04-07T06:22:42.828Z,58734.78
2023-04-07T06:25:11.181Z,58734.78
2023-04-07T06:27:39.094Z,58734.78
2023-04-07T06:30:08.120Z,58734.78
2023-04-07T06:32:35.985Z,58734.78
2023-04-07T06:35:04.597Z,58734.78
2023-04-07T06:37:33.718Z,58734.78
2023-04-07T06:40:01.469Z,58734.78
2023-04-07T06:42:29.303Z,58734.78
2023-04-07T06:44:57.112Z,58734.78
2023-04-07T06:47:24.942Z,58734.78
2023-04-07T06:49:52.702Z,58734.78
2023-04-07T06:52:20.390Z,58734.78
2023-04-07T06:54:49.710Z,58734.78
2023-04-07T06:57:17.578Z,58734.78
2023-04-07T06:59:45.466Z,58734.78
2023-04-07T07:02:13.458Z,58734.78
2023-04-07T07:04:41.514Z,58734.78
2023-04-07T07:07:09.323Z,58734.78
2023-04-07T07:09:39.980Z,58734.78
2023-04-07T07:12:09.348Z,58734.78
2023-04-07T07:14:37.068Z,58734.78
2023-04-07T07:17:04.861Z,58734.78
2023-04-07T07:19:32.687Z,58734.78
2023-04-07T07:22:00.414Z,58734.78
2023-04-07T07:24:29.205Z,58734.78
2023-04-07T07:26:57.814Z,58734.78
2023-04-07T07:29:27.241Z,58734.78
2023-04-07T07:31:55.237Z,58734.78
2023-04-07T07:34:24.079Z,58734.78
2023-04-07T07:36:51.864Z,58734.78
2023-04-07T07:39:19.667Z,58734.78
2023-04-07T07:41:47.817Z,58734.78
2023-04-07T07:44:15.494Z,58734.78
2023-04-07T07:46:44.699Z,58734.78
2023-04-07T07:49:12.717Z,58734.78
2023-04-07T07:51:40.467Z,58734.78
2023-04-07T07:54:09.577Z,58734.78
2023-04-07T07:56:37.372Z,58734.78
2023-04-07T07:59:06.393Z,58734.78
2023-04-07T08:01:34.281Z,58734.78
2023-04-07T08:04:03.780Z,58734.78
2023-04-07T08:06:32.732Z,58734.78
2023-04-07T08:09:03.609Z,58734.78
2023-04-07T08:11:31.368Z,58734.78
2023-04-07T08:13:59.120Z,58734.78
2023-04-07T08:16:26.973Z,58734.78
2023-04-07T08:18:54.835Z,58734.78
2023-04-07T08:21:24.028Z,58734.78
2023-04-07T08:23:51.781Z,58734.78
2023-04-07T08:26:19.598Z,58734.78
2023-04-07T08:28:47.447Z,58734.78
2023-04-07T08:31:15.482Z,58734.78
2023-04-07T08:33:43.218Z,58734.78
2023-04-07T08:36:11.169Z,58734.78
2023-04-07T08:38:40.525Z,58734.78
2023-04-07T08:41:11.747Z,58734.78
2023-04-07T08:43:40.676Z,58734.78
2023-04-07T08:46:11.350Z,58734.78
2023-04-07T08:48:40.675Z,58734.78
2023-04-07T08:51:10.327Z,58734.78
2023-04-07T08:53:45.049Z,58734.78
2023-04-07T08:56:13.455Z,58734.78
2023-04-07T08:58:41.799Z,58734.78
2023-04-07T09:01:10.473Z,58734.78
2023-04-07T09:03:39.603Z,58734.78
2023-04-07T09:06:10.817Z,58734.78
2023-04-07T09:08:40.142Z,58734.78
2023-04-07T09:11:08.037Z,58734.78
2023-04-07T09:13:35.953Z,58734.78
2023-04-07T09:16:04.089Z,58734.78
2023-04-07T09:18:32.133Z,58734.78
2023-04-07T09:21:04.362Z,58734.78
2023-04-07T09:23:33.661Z,58734.78
2023-04-07T09:26:20.403Z,58734.78
2023-04-07T09:28:51.552Z,58734.78
2023-04-07T09:31:19.509Z,58734.78
2023-04-07T09:33:47.705Z,58734.78
2023-04-07T09:36:15.709Z,58734.78
2023-04-07T09:38:46.042Z,58734.78
2023-04-07T09:41:17.018Z,58734.78
2023-04-07T09:43:46.763Z,58734.78
2023-04-07T09:46:16.487Z,58734.78
2023-04-07T09:48:46.212Z,58734.78
2023-04-07T09:51:15.444Z,58734.78
2023-04-07T09:53:48.877Z,58734.78
2023-04-07T09:56:19.957Z,58734.78
2023-04-07T09:58:48.844Z,58734.78
2023-04-07T10:01:17.916Z,58734.78
2023-04-07T10:03:47.404Z,58734.78
2023-04-07T10:06:16.579Z,58734.78
2023-04-07T10:08:44.743Z,58734.78
2023-04-07T10:11:12.636Z,58734.78
2023-04-07T10:13:42.176Z,58734.78
2023-04-07T10:16:09.993Z,58734.78
2023-04-07T10:18:40.246Z,58734.78
2023-04-07T10:21:09.375Z,58734.78
2023-04-07T10:23:53.850Z,58734.78
2023-04-07T10:26:26.895Z,58734.78
2023-04-07T10:29:01.455Z,58734.78
2023-04-07T10:31:29.842Z,58734.78
2023-04-07T10:33:58.049Z,58734.78
2023-04-07T10:36:26.139Z,58734.78
2023-04-07T10:39:22.422Z,58734.78
2023-04-07T10:41:51.803Z,58734.78
2023-04-07T10:44:50.567Z,58734.78
2023-04-07T10:47:18.577Z,58734.78
2023-04-07T10:50:18.165Z,58734.78
2023-04-07T10:52:47.294Z,58734.78
2023-04-07T10:55:38.340Z,58734.78
2023-04-07T10:58:23.295Z,58734.78
2023-04-07T11:01:21.387Z,58734.78
2023-04-07T11:04:04.725Z,58734.78
2023-04-07T11:06:32.628Z,58734.78
2023-04-07T11:09:00.569Z,58734.78
2023-04-07T11:11:42.910Z,58734.78
2023-04-07T11:14:10.829Z,58734.78
2023-04-07T11:16:42.596Z,58734.78
2023-04-07T11:19:10.605Z,58734.78
2023-04-07T11:21:38.433Z,58734.78
2023-04-07T11:24:06.574Z,58734.78
2023-04-07T11:26:44.023Z,58734.78
2023-04-07T11:29:13.428Z,58734.78
2023-04-07T11:31:49.361Z,58734.78
2023-04-07T11:34:17.272Z,58734.78
2023-04-07T11:36:45.085Z,58734.78
2023-04-07T11:39:23.008Z,58734.78
2023-04-07T11:41:51.891Z,58734.78
2023-04-07T11:44:19.668Z,58734.78
2023-04-07T11:46:56.488Z,58734.78
2023-04-07T11:49:26.053Z,58734.78
2023-04-07T11:51:59.802Z,58734.78
2023-04-07T11:54:27.775Z,58734.78
2023-04-07T11:56:56.459Z,58734.78
2023-04-07T11:59:25.393Z,58734.78
2023-04-07T12:01:57.664Z,58734.78
2023-04-07T12:04:26.218Z,58734.78
2023-04-07T12:06:54.232Z,58734.78
2023-04-07T12:09:30.479Z,58734.78
2023-04-07T12:12:02.750Z,58734.78
2023-04-07T12:14:30.529Z,58734.78
2023-04-07T12:17:01.934Z,58734.78
2023-04-07T12:19:30.587Z,58734.78
2023-04-07T12:21:58.516Z,58734.78
2023-04-07T12:24:27.095Z,58734.78
2023-04-07T12:26:54.923Z,58734.78
2023-04-07T12:29:22.923Z,58734.78
2023-04-07T12:31:53.163Z,58734.78
2023-04-07T12:34:22.472Z,58734.78
2023-04-07T12:36:50.496Z,58734.78
2023-04-07T12:39:18.363Z,58734.78
2023-04-07T12:41:47.607Z,58734.78
2023-04-07T12:44:17.363Z,58734.78
2023-04-07T12:46:45.454Z,58734.78
2023-04-07T12:49:13.226Z,58734.78
2023-04-07T12:51:42.519Z,58734.78
2023-04-07T12:54:10.966Z,58734.78
2023-04-07T12:56:40.310Z,58734.78
2023-04-07T12:59:08.579Z,58734.78
2023-04-07T13:01:37.307Z,58734.78
2023-04-07T13:04:05.401Z,58734.78
2023-04-07T13:06:33.660Z,58734.78
2023-04-07T13:09:02.931Z,58734.78
2023-04-07T13:11:30.770Z,58734.78
2023-04-07T13:14:00.557Z,58734.78
2023-04-07T13:16:29.538Z,58734.78
2023-04-07T13:18:57.374Z,58734.78
2023-04-07T13:23:56.250Z,58734.78
2023-04-07T13:26:26.152Z,58734.78
2023-04-07T13:28:53.888Z,58734.78
2023-04-07T13:31:23.627Z,58734.78
2023-04-07T13:33:51.782Z,58734.78
2023-04-07T13:36:21.230Z,58734.78
2023-04-07T13:38:50.829Z,58734.78
2023-04-07T13:41:18.548Z,58734.78
2023-04-07T13:43:47.874Z,58734.78
2023-04-07T13:46:28.108Z,58734.78
2023-04-07T13:48:57.172Z,58734.78
2023-04-07T13:51:25.054Z,58734.78
2023-04-07T13:53:53.019Z,58734.78
2023-04-07T13:56:22.186Z,58734.78
2023-04-07T13:58:51.824Z,58734.78
2023-04-07T14:01:19.924Z,58734.78
2023-04-07T14:03:49.742Z,58734.78
2023-04-07T14:06:17.995Z,58734.78
2023-04-07T14:08:45.760Z,58734.78
2023-04-07T14:11:13.567Z,58734.78
2023-04-07T14:13:41.426Z,58734.78
2023-04-07T14:16:10.620Z,58734.78
2023-04-07T14:18:38.437Z,58734.78
2023-04-07T14:21:06.577Z,58734.78
2023-04-07T14:23:37.574Z,58734.78
2023-04-07T14:26:05.789Z,58734.78
2023-04-07T14:28:33.846Z,58734.78
2023-04-07T14:31:02.001Z,58734.78
2023-04-07T14:33:31.609Z,58734.78
2023-04-07T14:35:59.567Z,58734.78
2023-04-07T14:38:27.354Z,58734.78
2023-04-07T14:40:55.312Z,58734.78
2023-04-07T14:43:23.097Z,58734.78
2023-04-07T14:45:50.880Z,58734.78
2023-04-07T14:48:18.725Z,58734.78
2023-04-07T14:50:51.768Z,58734.78
2023-04-07T14:53:24.139Z,58734.78
2023-04-07T14:55:51.826Z,58734.78
2023-04-07T14:58:19.828Z,58734.78
2023-04-07T15:00:47.606Z,58734.78
2023-04-07T15:03:15.782Z,58734.78
2023-04-07T15:05:43.737Z,58734.78
2023-04-07T15:08:13.052Z,58734.78
2023-04-07T15:10:41.732Z,58734.78
2023-04-07T15:13:09.527Z,58734.78
2023-04-07T15:15:37.327Z,58734.78
2023-04-07T15:18:05.370Z,58734.78
2023-04-07T15:20:33.132Z,58734.78
2023-04-07T15:23:01.580Z,58734.78
2023-04-07T15:25:30.718Z,58734.78
2023-04-07T15:27:58.555Z,58734.78
2023-04-07T15:30:26.404Z,58734.78
2023-04-07T15:32:59.074Z,58734.78
2023-04-07T15:35:27.105Z,58734.78
2023-04-07T15:37:55.046Z,58734.78
2023-04-07T15:40:23.239Z,58734.78
2023-04-07T15:42:52.422Z,58734.78
2023-04-07T15:45:20.396Z,58734.78
2023-04-07T15:47:48.199Z,58734.78
2023-04-07T15:50:16.111Z,58734.78
2023-04-07T15:52:45.428Z,58734.78
2023-04-07T15:55:13.289Z,58734.78
2023-04-07T15:57:41.228Z,58734.78
2023-04-07T16:00:11.218Z,58734.78
2023-04-07T16:02:39.423Z,58734.78
2023-04-07T16:05:08.098Z,58734.78
2023-04-07T16:07:36.417Z,58734.78
2023-04-07T16:10:08.150Z,58734.78
2023-04-07T16:12:36.913Z,58734.78
2023-04-07T16:15:05.458Z,58734.78
2023-04-07T16:17:34.906Z,58734.78
2023-04-07T16:20:03.922Z,58734.78
2023-04-07T16:22:31.735Z,58734.78
2023-04-07T16:24:59.503Z,58734.78
2023-04-07T16:27:27.436Z,58734.78
2023-04-07T16:29:55.235Z,58734.78
2023-04-07T16:32:23.056Z,58734.78
2023-04-07T16:34:52.243Z,58734.78
2023-04-07T16:37:20.256Z,58734.78
2023-04-07T16:39:48.046Z,58734.78
2023-04-07T16:42:15.764Z,58734.78
2023-04-07T16:44:43.596Z,58734.78
2023-04-07T16:47:11.493Z,58734.78
2023-04-07T16:49:39.315Z,58734.78
2023-04-07T16:52:08.503Z,58734.78
2023-04-07T16:54:36.449Z,58734.78
2023-04-07T16:57:04.420Z,58734.78
2023-04-07T16:59:33.383Z,58734.78
2023-04-07T17:02:08.447Z,58734.78
2023-04-07T17:04:36.653Z,58734.78
2023-04-07T17:07:04.818Z,58734.78
2023-04-07T17:09:48.814Z,101519.03
2023-04-07T17:12:17.012Z,101529.13
2023-04-07T17:14:46.016Z,101527.78
2023-04-07T17:17:14.010Z,101533.63
2023-04-07T17:19:41.864Z,101528.16
2023-04-07T17:22:09.779Z,101532.22
2023-04-07T17:24:38.099Z,101537.88
2023-04-07T17:27:07.407Z,101539.88
2023-04-07T17:29:35.348Z,101538.28
2023-04-07T17:32:03.394Z,101539.16
2023-04-07T17:34:31.696Z,101536.97
2023-04-07T17:36:59.510Z,101541.66
2023-04-07T17:39:27.356Z,101548.25
2023-04-07T17:41:55.127Z,101544.41
2023-04-07T17:44:24.262Z,101546.00
2023-04-07T17:46:52.246Z,101551.56
2023-04-07T17:49:20.738Z,101549.38
2023-04-07T17:51:48.591Z,101561.06
2023-04-07T17:54:17.311Z,101559.00
2023-04-07T17:56:45.103Z,101561.88
2023-04-07T17:59:12.908Z,101562.88
2023-04-07T18:01:42.662Z,101560.00
2023-04-07T18:04:10.779Z,101554.84
2023-04-07T18:06:38.713Z,101565.25
2023-04-07T18:09:06.479Z,101567.03
2023-04-07T18:11:34.197Z,101560.50
2023-04-07T18:14:02.283Z,101559.19
2023-04-07T18:16:30.633Z,101566.16
2023-04-07T18:19:00.542Z,101573.78
2023-04-07T18:21:29.383Z,101570.22
2023-04-07T18:23:57.402Z,101571.22
2023-04-07T18:26:25.258Z,101572.91
2023-04-07T18:28:53.163Z,101579.75
2023-04-07T18:31:21.761Z,101579.63
2023-04-07T18:33:50.176Z,101575.38
2023-04-07T18:36:19.441Z,101586.56
2023-04-07T18:38:56.291Z,101589.66
2023-04-07T18:41:24.127Z,101592.44
2023-04-07T18:43:52.061Z,101591.53
2023-04-07T18:46:19.963Z,101595.22
2023-04-07T18:48:47.851Z,101602.03
2023-04-07T18:51:17.348Z,101609.00
2023-04-07T18:53:46.883Z,101604.63
2023-04-07T18:56:14.824Z,101619.56
2023-04-07T18:58:48.005Z,101611.09
2023-04-07T19:01:16.599Z,101616.13
2023-04-07T19:03:44.589Z,101616.06
2023-04-07T19:06:15.563Z,101624.66
2023-04-07T19:08:43.693Z,101623.47
2023-04-07T19:11:12.924Z,101625.28
2023-04-07T19:13:40.681Z,101616.75
2023-04-07T19:16:08.725Z,101619.44
2023-04-07T19:18:36.732Z,101628.84
2023-04-07T19:21:04.805Z,101631.06
2023-04-07T19:23:32.696Z,101625.63
2023-04-07T19:26:01.003Z,101629.44
2023-04-07T19:28:33.814Z,101628.63
2023-04-07T19:31:01.646Z,101628.63
2023-04-07T19:33:29.490Z,101630.59
2023-04-07T19:35:57.647Z,101631.78
2023-04-07T19:38:25.530Z,101630.91
2023-04-07T19:40:53.293Z,101638.53
2023-04-07T19:43:21.004Z,101629.22
2023-04-07T19:45:50.263Z,101630.22
2023-04-07T19:48:19.157Z,101626.63
2023-04-07T19:50:49.975Z,101626.06
2023-04-07T19:53:18.332Z,101625.38
2023-04-07T19:55:46.854Z,101622.97
2023-04-07T19:58:17.048Z,101615.31
2023-04-07T20:00:45.694Z,101621.84
2023-04-07T20:03:14.827Z,101618.81
2023-04-07T20:05:42.846Z,101618.31
2023-04-07T20:08:11.067Z,101617.31
2023-04-07T20:10:38.971Z,101620.59
2023-04-07T20:13:06.722Z,101619.59
2023-04-07T20:15:34.427Z,101620.78
2023-04-07T20:18:02.295Z,101628.91
2023-04-07T20:20:31.425Z,101625.63
2023-04-07T20:22:59.427Z,101621.91
2023-04-07T20:25:27.230Z,101618.53
2023-04-07T20:27:54.939Z,101620.72
2023-04-07T20:30:22.686Z,101626.44
2023-04-07T20:32:50.487Z,101625.44
2023-04-07T20:35:18.605Z,101624.84
2023-04-07T20:37:48.497Z,101629.81
2023-04-07T20:40:17.005Z,101625.44
2023-04-07T20:42:45.973Z,101624.22
2023-04-07T20:45:13.960Z,101629.31
2023-04-07T20:47:42.053Z,101619.91
2023-04-07T20:50:10.666Z,101614.97
2023-04-07T20:52:40.301Z,101609.59
2023-04-07T20:55:10.603Z,101622.16
2023-04-07T20:57:39.292Z,101623.47
2023-04-07T21:00:08.699Z,101625.75
2023-04-07T21:02:36.631Z,101629.44
2023-04-07T21:05:04.906Z,101622.59
2023-04-07T21:07:32.702Z,101621.91
2023-04-07T21:10:00.976Z,101628.63
2023-04-07T21:12:30.198Z,101639.53
2023-04-07T21:14:58.056Z,101641.22
2023-04-07T21:17:25.958Z,101633.47
2023-04-07T21:19:53.741Z,101639.63
2023-04-07T21:22:21.594Z,101631.59
2023-04-07T21:24:49.512Z,101628.59
2023-04-07T21:27:17.741Z,101632.41
2023-04-07T21:29:46.929Z,101629.81
2023-04-07T21:32:15.207Z,101638.31
2023-04-07T21:34:43.070Z,101637.75
2023-04-07T21:37:10.774Z,101630.38
2023-04-07T21:39:38.502Z,101641.16
2023-04-07T21:42:06.636Z,101636.13
2023-04-07T21:44:34.360Z,101634.16
2023-04-07T21:47:03.561Z,101635.53
2023-04-07T21:49:31.898Z,101641.47
2023-04-07T21:52:00.111Z,101633.16
2023-04-07T21:54:27.870Z,101636.13
2023-04-07T21:56:55.699Z,101624.72
2023-04-07T21:59:23.515Z,101620.66
2023-04-07T22:01:51.300Z,101625.81
2023-04-07T22:04:21.782Z,101628.50
2023-04-07T22:06:49.977Z,101621.34
2023-04-07T22:09:17.920Z,101627.50
2023-04-07T22:11:45.726Z,101630.53
2023-04-07T22:14:13.517Z,101626.06
2023-04-07T22:16:41.425Z,101626.19
2023-04-07T22:19:09.183Z,101635.69
2023-04-07T22:21:38.234Z,101631.44
2023-04-07T22:24:06.045Z,101631.44
2023-04-07T22:26:33.819Z,101627.38
2023-04-07T22:29:01.678Z,101624.50
2023-04-07T22:31:29.506Z,101627.38
2023-04-07T22:33:57.605Z,101624.91
2023-04-07T22:36:26.293Z,101630.97
2023-04-07T22:38:55.373Z,101627.63
2023-04-07T22:41:23.058Z,101627.81
2023-04-07T22:43:50.805Z,101627.38
2023-04-07T22:46:18.789Z,101629.38
2023-04-07T22:48:47.407Z,101632.41
2023-04-07T22:51:15.756Z,101635.22
2023-04-07T22:53:43.586Z,101626.19
2023-04-07T22:56:13.762Z,101622.53
2023-04-07T22:58:41.483Z,101624.34
2023-04-07T23:01:09.258Z,101631.41
2023-04-07T23:03:37.135Z,101631.06
2023-04-07T23:06:05.637Z,101637.00
2023-04-07T23:08:33.362Z,101648.44
2023-04-07T23:11:01.125Z,101654.03
2023-04-07T23:13:30.214Z,101653.66
2023-04-07T23:15:58.086Z,101648.00
2023-04-07T23:18:25.828Z,101636.59
2023-04-07T23:20:53.606Z,101641.97
2023-04-07T23:23:21.269Z,101640.50
2023-04-07T23:25:49.025Z,101632.78
2023-04-07T23:28:16.742Z,101636.31
2023-04-07T23:30:46.085Z,101627.25
2023-04-07T23:33:16.049Z,101632.03
2023-04-07T23:35:43.852Z,101635.16
2023-04-07T23:38:11.660Z,101626.88
2023-04-07T23:40:39.533Z,101636.25
2023-04-07T23:43:07.646Z,101633.78
2023-04-07T23:45:35.460Z,101634.59
2023-04-07T23:48:04.728Z,101636.50
2023-04-07T23:50:32.545Z,101634.47
2023-04-07T23:53:00.308Z,101637.94
2023-04-07T23:55:28.081Z,101638.31
2023-04-07T23:57:58.339Z,101631.78
